createdAt,value
2023-04-02T00:02:30.078Z,4.20
2023-04-02T00:05:18.341Z,4.10
2023-04-02T00:07:50.554Z,5.65
2023-04-02T00:10:29.064Z,6.35
2023-04-02T00:13:05.463Z,7.23
2023-04-02T00:15:35.867Z,6.50
2023-04-02T00:18:04.189Z,6.72
2023-04-02T00:20:35.890Z,7.13
2023-04-02T00:23:05.541Z,6.32
2023-04-02T00:25:37.401Z,7.32
2023-04-02T00:28:05.403Z,5.68
2023-04-02T00:30:33.155Z,6.25
2023-04-02T00:33:02.489Z,5.78
2023-04-02T00:35:31.970Z,6.43
2023-04-02T00:38:00.515Z,6.32
2023-04-02T00:40:31.788Z,5.88
2023-04-02T00:43:01.189Z,6.45
2023-04-02T00:45:31.879Z,5.70
2023-04-02T00:48:01.117Z,5.18
2023-04-02T00:50:33.434Z,6.03
2023-04-02T00:53:01.727Z,6.15
2023-04-02T00:55:36.389Z,5.13
2023-04-02T00:58:05.440Z,4.45
2023-04-02T01:00:34.181Z,4.90
2023-04-02T01:03:29.316Z,5.82
2023-04-02T01:06:01.627Z,5.70
2023-04-02T01:08:37.562Z,5.95
2023-04-02T01:11:12.560Z,6.93
2023-04-02T01:13:43.496Z,6.05
2023-04-02T01:16:13.745Z,4.80
2023-04-02T01:18:52.097Z,6.65
2023-04-02T01:21:26.112Z,6.47
2023-04-02T01:23:58.238Z,5.88
2023-04-02T01:26:35.008Z,7.72
2023-04-02T01:29:10.456Z,8.27
2023-04-02T01:31:38.913Z,9.05
2023-04-02T01:34:08.677Z,7.95
2023-04-02T01:36:40.771Z,8.43
2023-04-02T01:39:12.770Z,8.88
2023-04-02T01:41:45.333Z,7.38
2023-04-02T01:44:17.865Z,9.90
2023-04-02T01:46:49.713Z,8.85
2023-04-02T01:49:19.882Z,9.05
2023-04-02T01:51:53.478Z,9.13
2023-04-02T01:54:23.754Z,9.23
2023-04-02T01:57:11.698Z,9.70
2023-04-02T01:59:41.977Z,8.80
2023-04-02T02:02:12.322Z,8.77
2023-04-02T02:04:42.964Z,11.70
2023-04-02T02:07:15.461Z,13.07
2023-04-02T02:09:47.216Z,11.15
2023-04-02T02:12:16.229Z,12.93
2023-04-02T02:14:49.220Z,12.10
2023-04-02T02:17:18.718Z,10.68
2023-04-02T02:19:48.410Z,9.63
2023-04-02T02:22:21.367Z,11.82
2023-04-02T02:24:49.385Z,11.32
2023-04-02T02:27:42.215Z,10.25
2023-04-02T02:30:16.280Z,10.73
2023-04-02T02:32:52.307Z,16.05
2023-04-02T02:35:22.894Z,10.88
2023-04-02T02:37:56.232Z,11.13
2023-04-02T02:40:28.525Z,13.93
2023-04-02T02:42:59.367Z,13.63
2023-04-02T02:45:30.356Z,11.90
2023-04-02T02:48:00.458Z,9.77
2023-04-02T02:50:31.292Z,10.25
2023-04-02T02:53:05.705Z,12.45
2023-04-02T02:55:37.022Z,11.30
2023-04-02T02:58:19.372Z,9.70
2023-04-02T03:01:00.559Z,13.85
2023-04-02T03:03:31.272Z,11.60
2023-04-02T03:06:03.517Z,10.93
2023-04-02T03:08:34.515Z,13.15
2023-04-02T03:11:07.051Z,11.30
2023-04-02T03:13:36.120Z,9.13
2023-04-02T03:16:09.501Z,8.45
2023-04-02T03:18:42.428Z,12.07
2023-04-02T03:21:16.878Z,9.30
2023-04-02T03:23:46.417Z,12.88
2023-04-02T03:26:17.597Z,8.95
2023-04-02T03:28:49.057Z,10.75
2023-04-02T03:31:20.603Z,8.90
2023-04-02T03:33:51.738Z,9.00
2023-04-02T03:36:23.812Z,13.60
2023-04-02T03:38:53.706Z,8.88
2023-04-02T03:41:23.901Z,10.63
2023-04-02T03:43:54.482Z,9.20
2023-04-02T03:46:28.446Z,7.53
2023-04-02T03:49:00.704Z,8.05
2023-04-02T03:51:31.950Z,9.55
2023-04-02T03:54:02.808Z,8.60
2023-04-02T03:56:34.049Z,9.60
2023-04-02T03:59:07.943Z,7.32
2023-04-02T04:01:38.801Z,7.57
2023-04-02T04:04:10.882Z,6.55
2023-04-02T04:06:43.314Z,8.27
2023-04-02T04:09:12.478Z,8.60
2023-04-02T04:11:45.204Z,7.63
2023-04-02T04:14:16.987Z,7.68
2023-04-02T04:16:49.132Z,9.38
2023-04-02T04:19:19.539Z,7.15
2023-04-02T04:21:47.764Z,7.13
2023-04-02T04:24:24.781Z,8.13
2023-04-02T04:27:04.121Z,5.93
2023-04-02T04:29:41.152Z,6.53
2023-04-02T04:32:18.178Z,6.32
2023-04-02T04:34:53.892Z,6.22
2023-04-02T04:37:33.606Z,4.22
2023-04-02T04:40:11.320Z,7.70
2023-04-02T04:42:41.235Z,7.93
2023-04-02T04:47:41.620Z,6.47
2023-04-02T04:50:13.671Z,6.03
2023-04-02T04:52:43.511Z,6.95
2023-04-02T04:55:23.004Z,6.88
2023-04-02T04:57:51.678Z,5.85
2023-04-02T05:00:23.954Z,6.20
2023-04-02T05:02:55.499Z,8.13
2023-04-02T05:05:29.656Z,6.38
2023-04-02T05:08:01.703Z,3.92
2023-04-02T05:10:33.778Z,6.35
2023-04-02T05:13:04.098Z,5.20
2023-04-02T05:15:34.569Z,8.82
2023-04-02T05:18:15.042Z,6.75
2023-04-02T05:20:48.590Z,5.97
2023-04-02T05:23:21.564Z,4.68
2023-04-02T05:25:53.895Z,4.75
2023-04-02T05:28:27.596Z,6.47
2023-04-02T05:30:57.420Z,5.45
2023-04-02T05:33:28.657Z,6.53
2023-04-02T05:36:01.325Z,7.07
2023-04-02T05:38:33.859Z,5.72
2023-04-02T05:41:03.148Z,5.82
2023-04-02T05:43:34.069Z,8.60
2023-04-02T05:46:07.842Z,5.18
2023-04-02T05:48:39.802Z,6.07
2023-04-02T05:51:10.415Z,6.13
2023-04-02T05:53:42.635Z,4.25
2023-04-02T05:56:14.845Z,4.70
2023-04-02T05:58:46.742Z,5.88
2023-04-02T06:01:33.518Z,6.75
2023-04-02T06:04:14.408Z,5.53
2023-04-02T06:06:45.695Z,5.40
2023-04-02T06:09:17.184Z,3.85
2023-04-02T06:11:48.104Z,4.00
2023-04-02T06:14:19.048Z,5.00
2023-04-02T06:19:21.830Z,5.28
2023-04-02T06:21:52.276Z,5.82
2023-04-02T06:24:25.353Z,5.65
2023-04-02T06:26:56.856Z,4.93
2023-04-02T06:29:28.679Z,4.20
2023-04-02T06:32:00.331Z,3.72
2023-04-02T06:34:30.857Z,5.40
2023-04-02T06:37:15.520Z,5.43
2023-04-02T06:39:44.395Z,5.68
2023-04-02T06:42:19.345Z,4.47
2023-04-02T06:45:07.193Z,2.90
2023-04-02T06:47:57.038Z,4.97
2023-04-02T06:50:45.437Z,3.92
2023-04-02T06:53:20.554Z,4.88
2023-04-02T06:55:50.147Z,3.28
2023-04-02T06:58:23.643Z,4.05
2023-04-02T07:00:52.534Z,4.43
2023-04-02T07:03:30.269Z,5.93
2023-04-02T07:06:03.730Z,3.17
2023-04-02T07:08:34.426Z,4.95
2023-04-02T07:11:05.199Z,3.05
2023-04-02T07:13:33.373Z,3.40
2023-04-02T07:16:01.363Z,2.75
2023-04-02T07:18:30.488Z,3.72
2023-04-02T07:21:01.291Z,4.57
2023-04-02T07:23:30.591Z,4.47
2023-04-02T07:25:59.016Z,3.07
2023-04-02T07:28:26.981Z,5.05
2023-04-02T07:30:54.855Z,2.92
2023-04-02T07:33:24.603Z,6.85
2023-04-02T07:35:52.495Z,3.97
2023-04-02T07:38:20.831Z,4.57
2023-04-02T07:40:50.373Z,3.78
2023-04-02T07:43:18.324Z,4.20
2023-04-02T07:45:46.058Z,3.70
2023-04-02T07:48:15.433Z,4.00
2023-04-02T07:50:43.298Z,3.88
2023-04-02T07:53:17.240Z,3.88
2023-04-02T07:55:45.031Z,3.22
2023-04-02T07:58:14.118Z,3.05
2023-04-02T08:00:42.494Z,2.05
2023-04-02T08:03:11.273Z,5.50
2023-04-02T08:05:39.206Z,6.93
2023-04-02T08:08:07.966Z,3.97
2023-04-02T08:10:35.828Z,2.33
2023-04-02T08:13:04.106Z,5.88
2023-04-02T08:15:34.035Z,3.22
2023-04-02T08:18:02.056Z,3.15
2023-04-02T08:20:29.823Z,3.45
2023-04-02T08:22:58.836Z,3.65
2023-04-02T08:25:26.599Z,4.75
2023-04-02T08:27:54.910Z,2.83
2023-04-02T08:30:23.239Z,3.05
2023-04-02T08:32:52.441Z,2.70
2023-04-02T08:35:20.804Z,3.95
2023-04-02T08:37:49.138Z,2.05
2023-04-02T08:40:23.656Z,4.10
2023-04-02T08:43:00.266Z,1.90
2023-04-02T08:45:36.546Z,3.85
2023-04-02T08:48:07.106Z,2.33
2023-04-02T08:50:36.361Z,2.13
2023-04-02T08:53:07.756Z,2.45
2023-04-02T08:55:37.581Z,2.00
2023-04-02T09:00:37.983Z,2.28
2023-04-02T09:03:10.937Z,4.50
2023-04-02T09:05:42.463Z,2.15
2023-04-02T09:08:17.516Z,3.30
2023-04-02T09:10:50.858Z,3.33
2023-04-02T09:13:21.434Z,2.53
2023-04-02T09:15:51.091Z,3.63
2023-04-02T09:18:21.104Z,2.75
2023-04-02T09:20:49.939Z,1.75
2023-04-02T09:23:21.447Z,1.50
2023-04-02T09:28:33.974Z,3.33
2023-04-02T09:31:04.318Z,1.38
2023-04-02T09:33:49.217Z,3.05
2023-04-02T09:36:26.885Z,3.47
2023-04-02T09:38:59.911Z,4.03
2023-04-02T09:41:29.149Z,2.35
2023-04-02T09:44:12.148Z,2.35
2023-04-02T09:46:47.977Z,3.13
2023-04-02T09:49:19.607Z,5.05
2023-04-02T09:51:47.374Z,3.03
2023-04-02T09:54:16.286Z,2.63
2023-04-02T09:57:01.363Z,2.97
2023-04-02T09:59:29.327Z,2.97
2023-04-02T10:02:03.654Z,2.67
2023-04-02T10:04:35.877Z,5.97
2023-04-02T10:07:07.056Z,3.88
2023-04-02T10:09:36.470Z,3.33
2023-04-02T10:12:05.415Z,2.10
2023-04-02T10:14:35.976Z,2.08
2023-04-02T10:17:08.806Z,3.00
2023-04-02T10:19:40.385Z,2.35
2023-04-02T10:22:13.994Z,5.28
2023-04-02T10:24:42.375Z,1.52
2023-04-02T10:27:17.404Z,2.15
2023-04-02T10:29:56.300Z,2.70
2023-04-02T10:32:26.325Z,3.08
2023-04-02T10:34:59.879Z,4.40
2023-04-02T10:37:45.216Z,6.93
2023-04-02T10:40:16.289Z,3.55
2023-04-02T10:42:47.219Z,2.08
2023-04-02T10:45:20.114Z,2.70
2023-04-02T10:47:50.929Z,3.20
2023-04-02T10:50:33.942Z,4.35
2023-04-02T10:53:08.221Z,2.83
2023-04-02T10:55:40.942Z,3.90
2023-04-02T10:58:32.739Z,6.15
2023-04-02T11:01:02.752Z,2.13
2023-04-02T11:03:35.114Z,3.30
2023-04-02T11:06:06.953Z,3.22
2023-04-02T11:08:41.008Z,1.20
2023-04-02T11:11:11.453Z,1.30
2023-04-02T11:13:44.225Z,3.40
2023-04-02T11:16:15.131Z,3.55
2023-04-02T11:18:45.338Z,2.85
2023-04-02T11:21:28.076Z,4.63
2023-04-02T11:24:01.279Z,2.85
2023-04-02T11:26:41.236Z,4.40
2023-04-02T11:29:16.536Z,2.78
2023-04-02T11:31:44.997Z,3.75
2023-04-02T11:34:17.362Z,1.92
2023-04-02T11:37:02.670Z,4.03
2023-04-02T11:39:50.113Z,4.85
2023-04-02T11:42:31.937Z,2.72
2023-04-02T11:45:02.150Z,2.25
2023-04-02T11:47:30.967Z,2.30
2023-04-02T11:50:01.321Z,2.38
2023-04-02T11:52:47.686Z,2.45
2023-04-02T11:55:24.992Z,1.23
2023-04-02T11:58:04.025Z,1.25
2023-04-02T12:00:36.381Z,3.60
2023-04-02T12:03:15.219Z,1.65
2023-04-02T12:05:48.245Z,4.85
2023-04-02T12:08:23.899Z,5.50
2023-04-02T12:10:58.100Z,3.22
2023-04-02T12:13:47.976Z,2.65
2023-04-02T12:16:15.803Z,2.00
2023-04-02T12:18:44.411Z,2.20
2023-04-02T12:21:16.712Z,3.88
2023-04-02T12:23:46.568Z,3.30
2023-04-02T12:26:27.837Z,2.53
2023-04-02T12:28:56.306Z,1.95
2023-04-02T12:31:25.233Z,2.08
2023-04-02T12:33:55.310Z,4.03
2023-04-02T12:36:24.000Z,3.83
2023-04-02T12:38:52.999Z,3.40
2023-04-02T12:41:24.637Z,3.97
2023-04-02T12:43:59.674Z,2.58
2023-04-02T12:46:29.073Z,2.22
2023-04-02T12:49:05.611Z,3.75
2023-04-02T12:51:34.433Z,2.80
2023-04-02T12:54:02.195Z,4.90
2023-04-02T12:56:30.586Z,2.10
2023-04-02T12:59:00.560Z,2.45
2023-04-02T13:04:04.295Z,4.05
2023-04-02T13:06:32.491Z,3.30
2023-04-02T13:09:01.141Z,1.60
2023-04-02T13:11:37.087Z,2.67
2023-04-02T13:14:07.575Z,2.72
2023-04-02T13:16:37.112Z,3.33
2023-04-02T13:19:13.215Z,1.67
2023-04-02T13:21:40.958Z,3.45
2023-04-02T13:24:19.192Z,2.72
2023-04-02T13:26:49.139Z,3.03
2023-04-02T13:29:22.232Z,1.35
2023-04-02T13:31:50.381Z,2.45
2023-04-02T13:34:18.927Z,3.60
2023-04-02T13:36:47.787Z,2.60
2023-04-02T13:39:15.534Z,2.15
2023-04-02T13:41:44.817Z,3.65
2023-04-02T13:44:24.789Z,2.92
2023-04-02T13:46:52.924Z,2.47
2023-04-02T13:49:20.808Z,2.30
2023-04-02T13:51:50.491Z,1.95
2023-04-02T13:54:23.047Z,3.97
2023-04-02T13:56:52.167Z,3.50
2023-04-02T13:59:19.914Z,2.05
2023-04-02T14:01:50.425Z,2.75
2023-04-02T14:04:21.735Z,2.25
2023-04-02T14:07:08.375Z,3.13
2023-04-02T14:09:43.418Z,1.90
2023-04-02T14:12:14.156Z,4.65
2023-04-02T14:14:47.981Z,1.90
2023-04-02T14:17:21.884Z,2.40
2023-04-02T14:19:56.364Z,2.25
2023-04-02T14:22:31.363Z,3.05
2023-04-02T14:25:04.273Z,3.95
2023-04-02T14:27:37.905Z,2.25
2023-04-02T14:30:10.251Z,2.33
2023-04-02T14:32:44.794Z,2.40
2023-04-02T14:35:18.953Z,2.40
2023-04-02T14:37:49.607Z,2.13
2023-04-02T14:40:21.955Z,2.50
2023-04-02T14:42:53.696Z,1.67
2023-04-02T14:45:30.521Z,3.40
2023-04-02T14:48:02.878Z,3.58
2023-04-02T14:50:33.508Z,2.05
2023-04-02T14:53:04.045Z,1.20
2023-04-02T14:55:34.687Z,2.60
2023-04-02T14:58:03.668Z,2.90
2023-04-02T15:00:34.944Z,1.97
2023-04-02T15:03:07.640Z,1.70
2023-04-02T15:05:39.838Z,1.98
2023-04-02T15:08:08.668Z,1.73
2023-04-02T15:10:39.682Z,1.98
2023-04-02T15:13:12.715Z,1.92
2023-04-02T15:15:43.210Z,2.17
2023-04-02T15:18:14.199Z,2.35
2023-04-02T15:20:46.247Z,2.60
2023-04-02T15:23:18.048Z,2.05
2023-04-02T15:25:49.522Z,2.88
2023-04-02T15:28:23.782Z,2.22
2023-04-02T15:30:54.084Z,3.00
2023-04-02T15:33:33.931Z,3.35
2023-04-02T15:36:05.702Z,2.42
2023-04-02T15:38:36.838Z,2.47
2023-04-02T15:41:10.449Z,2.63
2023-04-02T15:43:40.500Z,1.85
2023-04-02T15:46:18.377Z,2.17
2023-04-02T15:48:55.904Z,3.80
2023-04-02T15:51:34.864Z,1.83
2023-04-02T15:54:04.630Z,2.30
2023-04-02T15:56:36.832Z,2.05
2023-04-02T15:59:19.369Z,3.25
2023-04-02T16:01:53.155Z,2.83
2023-04-02T16:04:27.219Z,2.08
2023-04-02T16:07:03.114Z,2.25
2023-04-02T16:09:33.950Z,1.90
2023-04-02T16:12:13.090Z,3.03
2023-04-02T16:14:42.274Z,2.28
2023-04-02T16:17:24.310Z,3.53
2023-04-02T16:19:57.415Z,1.85
2023-04-02T16:22:29.424Z,2.85
2023-04-02T16:25:01.078Z,2.80
2023-04-02T16:27:33.273Z,2.08
2023-04-02T16:30:20.114Z,2.10
2023-04-02T16:32:57.657Z,2.35
2023-04-02T16:35:41.674Z,2.10
2023-04-02T16:38:16.561Z,2.30
2023-04-02T16:40:57.206Z,2.35
2023-04-02T16:43:36.292Z,2.08
2023-04-02T16:46:10.291Z,1.23
2023-04-02T16:48:42.380Z,1.90
2023-04-02T16:51:15.642Z,1.75
2023-04-02T16:54:00.930Z,3.70
2023-04-02T16:56:36.550Z,2.40
2023-04-02T16:59:09.368Z,2.80
2023-04-02T17:01:41.706Z,1.98
2023-04-02T17:04:18.264Z,1.63
2023-04-02T17:06:51.531Z,1.83
2023-04-02T17:09:24.283Z,4.45
2023-04-02T17:11:54.048Z,1.98
2023-04-02T17:14:26.151Z,1.42
2023-04-02T17:16:57.054Z,1.30
2023-04-02T17:19:27.781Z,3.28
2023-04-02T17:21:59.621Z,2.20
2023-04-02T17:24:29.682Z,3.13
2023-04-02T17:26:59.767Z,1.08
2023-04-02T17:29:31.825Z,3.15
2023-04-02T17:32:01.986Z,2.13
2023-04-02T17:34:29.711Z,1.50
2023-04-02T17:37:10.137Z,3.78
2023-04-02T17:40:01.315Z,2.47
2023-04-02T17:42:37.947Z,2.10
2023-04-02T17:45:07.943Z,2.65
2023-04-02T17:47:42.419Z,2.15
2023-04-02T17:50:22.156Z,1.75
2023-04-02T17:52:56.071Z,2.03
2023-04-02T17:55:31.679Z,2.08
2023-04-02T17:58:07.804Z,3.05
2023-04-02T18:00:44.270Z,3.00
2023-04-02T18:03:29.557Z,1.60
2023-04-02T18:06:01.238Z,1.77
2023-04-02T18:08:34.407Z,1.75
2023-04-02T18:11:08.771Z,2.88
2023-04-02T18:13:37.456Z,4.97
2023-04-02T18:16:11.753Z,3.97
2023-04-02T18:18:44.430Z,3.58
2023-04-02T18:21:17.727Z,3.25
2023-04-02T18:23:54.475Z,1.30
2023-04-02T18:26:27.112Z,3.83
2023-04-02T18:28:59.078Z,1.83
2023-04-02T18:31:32.195Z,3.17
2023-04-02T18:34:06.390Z,4.55
2023-04-02T18:36:38.981Z,4.10
2023-04-02T18:39:13.316Z,2.20
2023-04-02T18:41:47.190Z,4.82
2023-04-02T18:44:26.339Z,3.15
2023-04-02T18:46:56.422Z,9.50
2023-04-02T18:49:36.859Z,19.75
2023-04-02T18:52:11.087Z,40.25
2023-04-02T18:54:40.822Z,15.65
2023-04-02T18:57:13.067Z,5.30
2023-04-02T18:59:43.408Z,55.92
2023-04-02T19:02:28.694Z,27.67
2023-04-02T19:04:59.180Z,19.38
2023-04-02T19:07:51.051Z,9.30
2023-04-02T19:10:28.297Z,13.40
2023-04-02T19:12:56.764Z,18.75
2023-04-02T19:15:29.258Z,23.83
2023-04-02T19:18:00.135Z,5.22
2023-04-02T19:20:32.359Z,4.07
2023-04-02T19:23:05.043Z,4.15
2023-04-02T19:25:41.912Z,2.90
2023-04-02T19:28:14.386Z,3.28
2023-04-02T19:30:51.283Z,2.72
2023-04-02T19:33:27.438Z,3.50
2023-04-02T19:35:59.180Z,3.13
2023-04-02T19:38:37.987Z,4.05
2023-04-02T19:41:14.844Z,3.60
2023-04-02T19:43:43.114Z,2.28
2023-04-02T19:46:10.969Z,2.35
2023-04-02T19:49:03.991Z,2.95
2023-04-02T19:51:31.812Z,4.15
2023-04-02T19:54:00.132Z,2.45
2023-04-02T19:56:29.868Z,5.45
2023-04-02T19:58:58.378Z,2.97
2023-04-02T20:01:29.173Z,3.30
2023-04-02T20:03:57.077Z,2.50
2023-04-02T20:06:25.320Z,3.45
2023-04-02T20:08:53.481Z,4.43
2023-04-02T20:11:21.697Z,3.67
2023-04-02T20:13:50.797Z,2.95
2023-04-02T20:16:19.729Z,4.47
2023-04-02T20:18:47.542Z,4.20
2023-04-02T20:21:15.428Z,3.90
2023-04-02T20:23:43.678Z,2.22
2023-04-02T20:26:12.733Z,4.75
2023-04-02T20:28:41.299Z,2.55
2023-04-02T20:31:12.334Z,1.70
2023-04-02T20:33:41.876Z,3.40
2023-04-02T20:36:10.763Z,2.35
2023-04-02T20:38:38.813Z,2.05
2023-04-02T20:41:07.863Z,3.10
2023-04-02T20:43:36.200Z,2.47
2023-04-02T20:46:05.916Z,3.35
2023-04-02T20:48:36.641Z,2.10
2023-04-02T20:51:05.524Z,3.72
2023-04-02T20:53:34.545Z,1.95
2023-04-02T20:56:04.260Z,2.80
2023-04-02T20:58:32.033Z,2.92
2023-04-02T21:01:07.024Z,1.83
2023-04-02T21:03:36.359Z,3.80
2023-04-02T21:06:04.245Z,1.48
2023-04-02T21:08:33.035Z,2.35
2023-04-02T21:11:04.686Z,1.77
2023-04-02T21:13:36.038Z,2.38
2023-04-02T21:16:04.199Z,2.47
2023-04-02T21:18:32.052Z,1.15
2023-04-02T21:21:04.593Z,1.63
2023-04-02T21:23:32.893Z,1.67
2023-04-02T21:26:01.527Z,1.45
2023-04-02T21:28:29.559Z,1.98
2023-04-02T21:31:03.175Z,2.90
2023-04-02T21:33:37.186Z,2.80
2023-04-02T21:36:11.408Z,1.73
2023-04-02T21:38:43.187Z,2.10
2023-04-02T21:41:11.786Z,3.78
2023-04-02T21:43:39.714Z,2.33
2023-04-02T21:46:08.636Z,4.28
2023-04-02T21:48:36.570Z,2.92
2023-04-02T21:51:11.384Z,4.15
2023-04-02T21:53:39.617Z,2.88
2023-04-02T21:56:08.610Z,1.48
2023-04-02T21:58:37.427Z,2.60
2023-04-02T22:01:08.861Z,3.13
2023-04-02T22:03:39.925Z,3.00
2023-04-02T22:06:08.828Z,2.63
2023-04-02T22:08:39.760Z,2.58
2023-04-02T22:11:08.003Z,3.28
2023-04-02T22:13:36.148Z,3.35
2023-04-02T22:16:06.906Z,1.77
2023-04-02T22:21:02.881Z,2.10
2023-04-02T22:23:31.514Z,2.92
2023-04-02T22:26:01.388Z,4.10
2023-04-02T22:28:29.934Z,3.80
2023-04-02T22:31:04.700Z,2.95
2023-04-02T22:33:33.413Z,4.70
2023-04-02T22:36:01.302Z,5.55
2023-04-02T22:38:30.262Z,1.50
2023-04-02T22:41:10.279Z,2.92
2023-04-02T22:43:39.026Z,3.13
2023-04-02T22:46:07.776Z,3.97
2023-04-02T22:48:36.361Z,3.40
2023-04-02T22:51:04.610Z,3.85
2023-04-02T22:53:32.536Z,3.45
2023-04-02T22:56:02.842Z,3.28
2023-04-02T22:58:32.962Z,5.32
2023-04-02T23:01:04.009Z,5.75
2023-04-02T23:03:31.817Z,3.47
2023-04-02T23:06:00.579Z,3.65
2023-04-02T23:08:28.394Z,3.40
2023-04-02T23:11:01.890Z,3.10
2023-04-02T23:13:29.706Z,3.15
2023-04-02T23:15:58.963Z,3.83
2023-04-02T23:18:27.723Z,2.40
2023-04-02T23:20:55.490Z,2.30
2023-04-02T23:23:24.200Z,4.68
2023-04-02T23:25:52.388Z,2.70
2023-04-02T23:28:20.243Z,2.17
2023-04-02T23:30:47.954Z,4.80
2023-04-02T23:33:17.972Z,3.83
2023-04-02T23:35:45.725Z,3.25
2023-04-02T23:38:13.879Z,2.58
2023-04-02T23:40:43.148Z,3.33
2023-04-02T23:43:10.922Z,3.90
2023-04-02T23:45:39.100Z,2.33
2023-04-02T23:48:07.515Z,6.30
2023-04-02T23:50:36.788Z,3.53
2023-04-02T23:53:05.268Z,4.43
2023-04-02T23:55:34.049Z,1.95
2023-04-02T23:58:01.752Z,2.17
